Time;durP1;ratioP1;P1;durP2;ratioP2;P2;SDS_P1;SDS_P2;PMS_P1;PMS_P2;Temp;Humidity;BMP_temperature;BMP_pressure;BME280_temperature;BME280_humidity;BME280_pressure;Samples;Min_cycle;Max_cycle;Signal;HPM_P1;HPM_P2
2023/11/25 00:01:31;;;;;;;;;0.25;0.00;;;;;;;;5070055;28;11368;-79
2023/11/25 00:04:00;;;;;;;;;4.75;0.50;;;;;;;;5069751;28;11433;-78
2023/11/25 00:06:28;;;;;;;;;1.75;1.50;;;;;;;;5068953;28;11581;-78
2023/11/25 00:08:55;;;;;;;;;1.00;1.00;;;;;;;;5066621;28;11533;-79
2023/11/25 00:11:24;;;;;;;;;1.00;1.00;;;;;;;;5068103;28;11422;-78
2023/11/25 00:13:51;;;;;;;;;0.25;0.25;;;;;;;;5067691;28;11406;-77
2023/11/25 00:16:19;;;;;;;;;1.00;1.00;;;;;;;;5067669;28;11461;-79
2023/11/25 00:18:46;;;;;;;;;1.00;1.00;;;;;;;;5067306;28;11394;-78
2023/11/25 00:21:15;;;;;;;;;6.00;2.00;;;;;;;;5067776;28;11429;-78
2023/11/25 00:23:42;;;;;;;;;3.00;1.00;;;;;;;;5067431;28;11610;-78
2023/11/25 00:26:09;;;;;;;;;1.75;1.75;;;;;;;;5067407;28;11519;-78
2023/11/25 00:28:38;;;;;;;;;1.75;1.75;;;;;;;;5067430;28;11420;-79
2023/11/25 00:31:05;;;;;;;;;1.00;1.00;;;;;;;;5066837;28;11430;-78
2023/11/25 00:33:33;;;;;;;;;1.00;1.00;;;;;;;;5067570;28;11470;-77
2023/11/25 00:36:00;;;;;;;;;2.00;2.00;;;;;;;;5067352;28;11556;-78
2023/11/25 00:38:27;;;;;;;;;3.00;1.00;;;;;;;;5067204;28;11472;-79
2023/11/25 00:40:55;;;;;;;;;2.25;2.25;;;;;;;;5067052;28;11411;-78
2023/11/25 00:43:22;;;;;;;;;1.00;1.00;;;;;;;;5066994;28;11523;-78
2023/11/25 00:45:50;;;;;;;;;1.00;1.00;;;;;;;;5067823;28;11441;-79
2023/11/25 00:48:18;;;;;;;;;1.50;0.00;;;;;;;;5070473;28;11437;-78
2023/11/25 00:50:45;;;;;;;;;1.00;1.00;;;;;;;;5071057;28;11453;-79
2023/11/25 00:53:12;;;;;;;;;1.25;1.25;;;;;;;;5071636;28;11427;-79
2023/11/25 00:55:39;;;;;;;;;2.50;1.00;;;;;;;;5070116;28;11419;-77
2023/11/25 00:58:07;;;;;;;;;1.00;1.00;;;;;;;;5071470;28;11530;-79
2023/11/25 01:00:34;;;;;;;;;0.75;0.75;;;;;;;;5071093;28;11570;-80
2023/11/25 01:03:03;;;;;;;;;2.50;1.25;;;;;;;;5071416;28;11512;-79
2023/11/25 01:05:30;;;;;;;;;1.00;1.00;;;;;;;;5070446;28;11732;-79
2023/11/25 01:07:57;;;;;;;;;1.00;1.00;;;;;;;;5071692;28;11504;-79
2023/11/25 01:10:26;;;;;;;;;0.00;0.00;;;;;;;;5070672;28;11509;-78
2023/11/25 01:12:53;;;;;;;;;1.75;1.75;;;;;;;;5070795;28;11418;-78
2023/11/25 01:15:24;;;;;;;;;1.75;1.00;;;;;;;;5069996;28;11446;-79
2023/11/25 01:17:51;;;;;;;;;1.00;1.00;;;;;;;;5071176;28;11549;-79
2023/11/25 01:20:20;;;;;;;;;1.25;1.00;;;;;;;;5071405;28;11543;-79
2023/11/25 01:22:49;;;;;;;;;1.00;1.00;;;;;;;;5071020;28;11498;-78
2023/11/25 01:25:17;;;;;;;;;1.25;1.25;;;;;;;;5071583;28;11431;-79
2023/11/25 01:27:44;;;;;;;;;2.00;0.00;;;;;;;;5072012;28;11537;-79
2023/11/25 01:30:12;;;;;;;;;3.00;1.75;;;;;;;;5072854;28;11576;-78
2023/11/25 01:32:40;;;;;;;;;0.50;0.50;;;;;;;;5072460;28;11535;-78
2023/11/25 01:35:09;;;;;;;;;2.00;2.00;;;;;;;;5075031;28;11411;-77
2023/11/25 01:37:40;;;;;;;;;2.75;0.25;;;;;;;;5074993;28;11411;-80
2023/11/25 01:40:11;;;;;;;;;1.00;1.00;;;;;;;;5075357;28;11434;-77
2023/11/25 01:42:38;;;;;;;;;0.00;0.00;;;;;;;;5057500;28;11533;-79
2023/11/25 01:45:08;;;;;;;;;0.50;0.00;;;;;;;;5073695;28;11548;-78
2023/11/25 01:47:36;;;;;;;;;1.50;1.00;;;;;;;;5070845;28;11437;-78
2023/11/25 01:50:06;;;;;;;;;2.00;2.00;;;;;;;;5071495;28;11426;-78
2023/11/25 01:52:37;;;;;;;;;2.00;2.00;;;;;;;;5072946;28;11599;-78
2023/11/25 01:55:08;;;;;;;;;1.00;1.00;;;;;;;;5073325;28;11414;-79
2023/11/25 01:57:35;;;;;;;;;1.00;1.00;;;;;;;;5071475;28;11588;-78
2023/11/25 02:00:07;;;;;;;;;1.00;1.00;;;;;;;;5068458;28;11539;-78
2023/11/25 02:02:35;;;;;;;;;1.00;1.00;;;;;;;;5042275;28;11518;-78
2023/11/25 02:05:03;;;;;;;;;1.75;1.00;;;;;;;;5049688;28;11440;-78
2023/11/25 02:07:30;;;;;;;;;4.00;1.75;;;;;;;;5046885;28;11964;-79
2023/11/25 02:09:59;;;;;;;;;1.25;1.25;;;;;;;;5048071;28;11604;-78
2023/11/25 02:12:26;;;;;;;;;0.25;0.25;;;;;;;;5049972;28;11544;-78
2023/11/25 02:14:53;;;;;;;;;2.00;1.75;;;;;;;;5049457;28;11572;-79
2023/11/25 02:17:21;;;;;;;;;2.00;1.00;;;;;;;;5049742;28;11493;-79
2023/11/25 02:19:48;;;;;;;;;0.75;0.75;;;;;;;;5043627;28;11438;-79
2023/11/25 02:22:16;;;;;;;;;1.00;1.00;;;;;;;;5049845;28;11425;-78
2023/11/25 02:24:45;;;;;;;;;0.75;0.75;;;;;;;;5049394;28;11460;-78
2023/11/25 02:27:13;;;;;;;;;3.00;1.75;;;;;;;;5049701;28;11551;-79
2023/11/25 02:29:41;;;;;;;;;5.00;2.00;;;;;;;;5049594;28;11406;-79
2023/11/25 02:32:09;;;;;;;;;1.00;1.00;;;;;;;;5048724;28;11567;-78
2023/11/25 02:34:36;;;;;;;;;2.00;0.00;;;;;;;;5049983;28;11434;-79
2023/11/25 02:37:06;;;;;;;;;0.75;0.50;;;;;;;;5049200;28;11450;-80
2023/11/25 02:39:34;;;;;;;;;1.00;1.00;;;;;;;;5046656;28;11751;-78
2023/11/25 02:42:05;;;;;;;;;2.25;2.00;;;;;;;;5049358;28;11581;-79
2023/11/25 02:44:33;;;;;;;;;1.75;1.75;;;;;;;;5048881;28;11489;-79
2023/11/25 02:47:00;;;;;;;;;1.00;1.00;;;;;;;;5049283;28;11632;-78
2023/11/25 02:49:27;;;;;;;;;1.00;1.00;;;;;;;;5049512;28;11446;-78
2023/11/25 02:51:55;;;;;;;;;2.25;2.25;;;;;;;;5048743;28;11615;-79
2023/11/25 02:54:24;;;;;;;;;1.00;1.00;;;;;;;;5037283;28;11514;-79
2023/11/25 02:56:51;;;;;;;;;2.00;2.00;;;;;;;;5049081;28;11515;-80
2023/11/25 02:59:20;;;;;;;;;1.00;1.00;;;;;;;;5051749;28;11502;-79
2023/11/25 03:01:51;;;;;;;;;2.75;2.00;;;;;;;;5046849;28;11468;-80
2023/11/25 03:04:19;;;;;;;;;2.25;1.00;;;;;;;;5047579;28;11504;-79
2023/11/25 03:06:46;;;;;;;;;1.00;1.00;;;;;;;;5037341;28;11481;-79
2023/11/25 03:09:14;;;;;;;;;3.00;1.25;;;;;;;;5048769;28;11481;-78
2023/11/25 03:11:42;;;;;;;;;5.00;1.75;;;;;;;;5049257;28;12271;-79
2023/11/25 03:14:09;;;;;;;;;2.25;1.00;;;;;;;;5048575;28;11615;-78
2023/11/25 03:16:40;;;;;;;;;0.25;0.25;;;;;;;;5049590;28;11493;-79
2023/11/25 03:19:10;;;;;;;;;3.75;1.25;;;;;;;;5049693;28;11514;-79
2023/11/25 03:21:38;;;;;;;;;2.00;1.00;;;;;;;;5051170;28;11613;-80
2023/11/25 03:24:07;;;;;;;;;1.75;1.75;;;;;;;;5039359;28;11486;-78
2023/11/25 03:26:35;;;;;;;;;2.00;0.00;;;;;;;;5040512;28;11611;-80
2023/11/25 03:29:02;;;;;;;;;1.00;1.00;;;;;;;;5040133;28;11501;-78
2023/11/25 03:31:33;;;;;;;;;4.00;1.00;;;;;;;;5040432;28;11518;-79
2023/11/25 03:34:01;;;;;;;;;2.25;1.00;;;;;;;;5042577;28;11484;-79
2023/11/25 03:36:28;;;;;;;;;2.00;2.00;;;;;;;;5049274;28;11516;-79
2023/11/25 03:38:56;;;;;;;;;1.00;1.00;;;;;;;;5049643;28;11508;-78
2023/11/25 03:41:26;;;;;;;;;3.00;1.00;;;;;;;;5050038;28;11610;-80
2023/11/25 03:43:53;;;;;;;;;0.25;0.00;;;;;;;;5050751;28;11499;-79
2023/11/25 03:46:23;;;;;;;;;1.00;1.00;;;;;;;;5038161;28;12384;-79
2023/11/25 03:48:50;;;;;;;;;1.00;1.00;;;;;;;;5048044;28;12246;-78
2023/11/25 03:51:19;;;;;;;;;4.00;1.75;;;;;;;;5048187;28;11498;-79
2023/11/25 03:53:49;;;;;;;;;2.50;1.00;;;;;;;;5047681;28;12389;-79
2023/11/25 03:56:16;;;;;;;;;1.75;1.75;;;;;;;;5048303;28;11528;-80
2023/11/25 03:58:43;;;;;;;;;0.50;0.50;;;;;;;;5047417;28;11614;-77
2023/11/25 04:01:13;;;;;;;;;1.50;1.00;;;;;;;;5047208;28;11445;-79
2023/11/25 04:03:40;;;;;;;;;2.00;0.00;;;;;;;;5048314;28;11640;-79
2023/11/25 04:06:08;;;;;;;;;0.00;0.00;;;;;;;;5048215;28;11611;-78
2023/11/25 04:08:37;;;;;;;;;2.50;1.00;;;;;;;;5046700;28;11484;-79
2023/11/25 04:11:06;;;;;;;;;1.00;1.00;;;;;;;;5047650;28;11521;-78
2023/11/25 04:13:33;;;;;;;;;2.75;1.00;;;;;;;;5047756;28;11495;-78
2023/11/25 04:16:00;;;;;;;;;1.00;1.00;;;;;;;;5048268;28;11521;-78
2023/11/25 04:18:28;;;;;;;;;0.50;0.50;;;;;;;;5047226;28;11560;-78
2023/11/25 04:20:55;;;;;;;;;2.00;2.00;;;;;;;;5047919;28;11522;-78
2023/11/25 04:23:22;;;;;;;;;1.00;1.00;;;;;;;;5050507;28;11529;-79
2023/11/25 04:25:51;;;;;;;;;0.25;0.25;;;;;;;;5052539;28;11514;-78
2023/11/25 04:28:19;;;;;;;;;5.50;2.00;;;;;;;;5051796;28;11519;-79
2023/11/25 04:30:46;;;;;;;;;2.25;0.25;;;;;;;;5052827;28;11432;-79
2023/11/25 04:33:14;;;;;;;;;3.00;1.25;;;;;;;;5053794;28;11505;-79
2023/11/25 04:35:42;;;;;;;;;0.00;0.00;;;;;;;;5053949;28;11470;-79
2023/11/25 04:38:10;;;;;;;;;5.00;1.00;;;;;;;;5052642;28;11540;-79
2023/11/25 04:40:37;;;;;;;;;3.00;0.00;;;;;;;;5051573;28;11516;-79
2023/11/25 04:43:06;;;;;;;;;1.50;1.00;;;;;;;;5051966;28;11448;-79
2023/11/25 04:45:34;;;;;;;;;6.50;2.25;;;;;;;;5051533;28;11511;-80
2023/11/25 04:48:01;;;;;;;;;0.50;0.50;;;;;;;;5050062;28;11520;-79
2023/11/25 04:50:29;;;;;;;;;2.50;2.00;;;;;;;;5051146;28;11491;-79
2023/11/25 04:52:56;;;;;;;;;2.00;1.00;;;;;;;;5040669;28;11562;-79
2023/11/25 04:55:27;;;;;;;;;1.00;1.00;;;;;;;;5051012;28;11556;-78
2023/11/25 04:57:54;;;;;;;;;2.50;1.00;;;;;;;;5051042;28;11452;-80
2023/11/25 05:00:23;;;;;;;;;1.25;1.25;;;;;;;;5050253;28;11475;-80
2023/11/25 05:02:50;;;;;;;;;1.50;1.00;;;;;;;;5052116;28;11483;-78
2023/11/25 05:05:18;;;;;;;;;0.00;0.00;;;;;;;;5051537;28;11483;-80
2023/11/25 05:07:46;;;;;;;;;2.50;1.25;;;;;;;;5054583;28;12229;-79
2023/11/25 05:10:17;;;;;;;;;1.25;1.25;;;;;;;;5054094;28;11462;-79
2023/11/25 05:12:44;;;;;;;;;0.00;0.00;;;;;;;;5050516;28;11464;-79
2023/11/25 05:15:14;;;;;;;;;0.00;0.00;;;;;;;;5039719;28;11508;-79
2023/11/25 05:17:45;;;;;;;;;1.00;1.00;;;;;;;;5044044;28;12229;-78
2023/11/25 05:20:15;;;;;;;;;1.00;0.00;;;;;;;;5044636;28;11569;-78
2023/11/25 05:22:43;;;;;;;;;0.50;0.50;;;;;;;;5049295;28;11449;-78
2023/11/25 05:25:12;;;;;;;;;2.00;1.00;;;;;;;;5044731;28;11601;-79
2023/11/25 05:27:39;;;;;;;;;0.00;0.00;;;;;;;;5051890;28;11445;-79
2023/11/25 05:30:09;;;;;;;;;3.25;3.25;;;;;;;;5052026;28;12297;-78
2023/11/25 05:32:36;;;;;;;;;2.25;1.00;;;;;;;;5053799;28;11508;-79
2023/11/25 05:35:06;;;;;;;;;1.50;1.50;;;;;;;;5052628;28;12045;-78
2023/11/25 05:37:34;;;;;;;;;1.00;1.00;;;;;;;;5050815;28;11543;-78
2023/11/25 05:40:01;;;;;;;;;3.00;2.00;;;;;;;;5049853;28;11449;-78
2023/11/25 05:42:28;;;;;;;;;2.00;2.00;;;;;;;;5049696;28;12359;-80
2023/11/25 05:44:55;;;;;;;;;2.75;1.00;;;;;;;;5049767;28;11447;-79
2023/11/25 05:47:23;;;;;;;;;0.00;0.00;;;;;;;;5050258;28;12230;-78
2023/11/25 05:49:53;;;;;;;;;2.00;2.00;;;;;;;;5049265;28;11444;-79
2023/11/25 05:52:21;;;;;;;;;1.25;1.00;;;;;;;;5049793;28;11486;-79
2023/11/25 05:54:48;;;;;;;;;1.25;1.25;;;;;;;;5050174;28;12334;-79
2023/11/25 05:57:16;;;;;;;;;0.00;0.00;;;;;;;;5049631;28;12247;-79
2023/11/25 05:59:43;;;;;;;;;2.00;0.00;;;;;;;;5050286;28;11424;-79
2023/11/25 06:02:10;;;;;;;;;1.25;1.00;;;;;;;;5048838;28;11465;-79
2023/11/25 06:04:38;;;;;;;;;1.00;1.00;;;;;;;;5050280;28;12171;-79
2023/11/25 06:07:05;;;;;;;;;2.00;0.75;;;;;;;;5049369;28;11431;-79
2023/11/25 06:09:34;;;;;;;;;2.00;0.25;;;;;;;;5048800;28;11469;-78
2023/11/25 06:12:01;;;;;;;;;2.00;2.00;;;;;;;;5049073;28;11484;-78
2023/11/25 06:14:32;;;;;;;;;1.00;1.00;;;;;;;;5049998;28;12214;-78
2023/11/25 06:17:01;;;;;;;;;2.00;2.00;;;;;;;;5049083;28;11444;-78
2023/11/25 06:19:32;;;;;;;;;1.75;1.75;;;;;;;;5050675;28;11522;-79
2023/11/25 06:22:00;;;;;;;;;0.00;0.00;;;;;;;;5051507;28;11502;-79
2023/11/25 06:24:28;;;;;;;;;1.00;1.00;;;;;;;;5049131;28;11429;-79
2023/11/25 06:26:56;;;;;;;;;1.25;1.25;;;;;;;;5048963;28;11452;-79
2023/11/25 06:29:23;;;;;;;;;2.00;1.00;;;;;;;;5048542;28;11622;-80
2023/11/25 06:31:51;;;;;;;;;1.00;1.00;;;;;;;;5048950;28;11414;-78
2023/11/25 06:34:18;;;;;;;;;5.00;1.00;;;;;;;;5049106;28;11510;-79
2023/11/25 06:36:46;;;;;;;;;3.00;1.00;;;;;;;;5049832;28;12362;-79
2023/11/25 06:39:14;;;;;;;;;2.25;1.50;;;;;;;;5048880;28;11503;-78
2023/11/25 06:41:48;;;;;;;;;1.25;1.25;;;;;;;;5049181;28;11594;-78
2023/11/25 06:44:17;;;;;;;;;2.25;1.50;;;;;;;;5049244;28;11615;-78
2023/11/25 06:46:45;;;;;;;;;3.25;2.00;;;;;;;;5049354;28;11514;-77
2023/11/25 06:49:13;;;;;;;;;4.50;1.50;;;;;;;;5048421;28;11546;-79
2023/11/25 06:51:41;;;;;;;;;2.25;1.00;;;;;;;;5049171;28;11531;-79
2023/11/25 06:54:09;;;;;;;;;2.75;2.00;;;;;;;;5049203;28;12381;-78
2023/11/25 06:56:38;;;;;;;;;2.00;1.00;;;;;;;;5050883;28;11590;-79
2023/11/25 06:59:06;;;;;;;;;4.75;2.50;;;;;;;;5051125;28;11490;-78
2023/11/25 07:01:35;;;;;;;;;5.50;2.00;;;;;;;;5052382;28;11494;-79
2023/11/25 07:04:04;;;;;;;;;5.50;3.00;;;;;;;;5052921;28;11612;-79
2023/11/25 07:06:31;;;;;;;;;5.25;3.00;;;;;;;;5037580;28;11568;-78
2023/11/25 07:09:00;;;;;;;;;4.00;2.00;;;;;;;;5044000;28;11514;-78
2023/11/25 07:11:30;;;;;;;;;4.00;2.00;;;;;;;;5038233;28;11528;-78
2023/11/25 07:14:01;;;;;;;;;3.00;3.00;;;;;;;;5044218;28;11594;-78
2023/11/25 07:16:28;;;;;;;;;5.00;3.75;;;;;;;;5048521;28;11533;-78
2023/11/25 07:19:00;;;;;;;;;6.75;4.00;;;;;;;;5037194;28;11636;-77
2023/11/25 07:21:29;;;;;;;;;5.00;5.00;;;;;;;;5049655;28;11500;-76
2023/11/25 07:23:59;;;;;;;;;4.25;2.75;;;;;;;;5050053;28;11525;-77
2023/11/25 07:26:29;;;;;;;;;7.00;4.00;;;;;;;;5048746;28;11565;-78
2023/11/25 07:29:02;;;;;;;;;3.00;2.00;;;;;;;;5048010;28;11508;-78
2023/11/25 07:31:30;;;;;;;;;3.00;3.00;;;;;;;;5046929;28;12349;-77
2023/11/25 07:34:01;;;;;;;;;2.50;2.50;;;;;;;;5047838;28;11523;-78
2023/11/25 07:36:28;;;;;;;;;3.75;2.75;;;;;;;;5048009;28;11523;-78
2023/11/25 07:38:56;;;;;;;;;3.25;2.00;;;;;;;;5047633;28;11489;-79
2023/11/25 07:41:25;;;;;;;;;2.75;2.75;;;;;;;;5047160;28;11510;-78
2023/11/25 07:43:53;;;;;;;;;3.75;2.25;;;;;;;;5047626;28;11528;-77
2023/11/25 07:46:21;;;;;;;;;3.50;3.50;;;;;;;;5047559;28;12375;-78
2023/11/25 07:48:48;;;;;;;;;8.00;3.75;;;;;;;;5048782;28;10997;-78
2023/11/25 07:51:18;;;;;;;;;4.50;3.00;;;;;;;;5047797;28;11630;-78
2023/11/25 07:53:49;;;;;;;;;8.00;4.00;;;;;;;;5048361;28;11635;-79
2023/11/25 07:56:19;;;;;;;;;7.00;4.00;;;;;;;;5047790;28;12296;-78
2023/11/25 07:58:46;;;;;;;;;4.00;4.00;;;;;;;;5047763;28;11523;-78
2023/11/25 08:01:13;;;;;;;;;4.00;4.00;;;;;;;;5046753;28;11443;-78
2023/11/25 08:03:41;;;;;;;;;6.00;4.00;;;;;;;;5047620;28;12329;-77
2023/11/25 08:06:08;;;;;;;;;3.00;3.00;;;;;;;;5047933;28;11615;-78
2023/11/25 08:08:39;;;;;;;;;4.00;2.50;;;;;;;;5047255;28;11496;-78
2023/11/25 08:11:09;;;;;;;;;3.00;3.00;;;;;;;;5049974;28;11518;-78
2023/11/25 08:13:38;;;;;;;;;4.25;2.75;;;;;;;;5048851;28;11492;-78
2023/11/25 08:16:07;;;;;;;;;7.00;4.00;;;;;;;;5047663;28;11518;-78
2023/11/25 08:18:36;;;;;;;;;5.50;5.50;;;;;;;;5045996;28;11500;-78
2023/11/25 08:21:03;;;;;;;;;4.50;3.00;;;;;;;;5047337;28;11515;-79
2023/11/25 08:23:33;;;;;;;;;3.75;3.00;;;;;;;;5045721;28;11493;-78
2023/11/25 08:26:05;;;;;;;;;5.00;5.00;;;;;;;;5047111;28;12338;-78
2023/11/25 08:28:35;;;;;;;;;7.75;6.00;;;;;;;;5047086;28;11640;-78
2023/11/25 08:31:03;;;;;;;;;4.50;3.75;;;;;;;;5045700;28;11405;-78
2023/11/25 08:33:30;;;;;;;;;2.50;2.00;;;;;;;;5055078;28;11514;-80
2023/11/25 08:35:57;;;;;;;;;2.75;2.00;;;;;;;;5050991;28;11612;-79
2023/11/25 08:38:29;;;;;;;;;2.50;2.50;;;;;;;;5047633;28;11493;-79
2023/11/25 08:41:01;;;;;;;;;4.00;2.50;;;;;;;;5047575;28;11527;-78
2023/11/25 08:43:32;;;;;;;;;3.50;3.50;;;;;;;;5048432;28;11517;-78
2023/11/25 08:46:02;;;;;;;;;2.50;2.50;;;;;;;;5048502;28;11516;-79
2023/11/25 08:48:30;;;;;;;;;3.50;1.75;;;;;;;;5050104;28;11510;-80
2023/11/25 08:51:00;;;;;;;;;3.00;3.00;;;;;;;;5049428;28;11490;-80
2023/11/25 08:53:30;;;;;;;;;3.00;3.00;;;;;;;;5045793;28;11520;-78
2023/11/25 08:56:03;;;;;;;;;3.75;3.75;;;;;;;;5044843;28;11513;-80
2023/11/25 08:58:31;;;;;;;;;2.50;2.50;;;;;;;;5048190;28;11536;-80
2023/11/25 09:01:02;;;;;;;;;2.25;2.00;;;;;;;;5045069;28;11582;-80
2023/11/25 09:03:32;;;;;;;;;5.00;2.50;;;;;;;;5047130;28;11582;-80
2023/11/25 09:06:00;;;;;;;;;2.25;2.00;;;;;;;;5047682;28;11494;-79
2023/11/25 09:08:27;;;;;;;;;4.75;3.00;;;;;;;;5046666;28;11623;-79
2023/11/25 09:10:55;;;;;;;;;1.00;1.00;;;;;;;;5054588;28;11656;-79
2023/11/25 09:13:23;;;;;;;;;5.25;3.00;;;;;;;;5053330;28;11514;-79
2023/11/25 09:15:52;;;;;;;;;5.25;2.25;;;;;;;;5051273;28;11521;-79
2023/11/25 09:18:22;;;;;;;;;2.00;2.00;;;;;;;;5050489;28;11667;-80
2023/11/25 09:20:50;;;;;;;;;1.00;1.00;;;;;;;;5050555;28;11496;-80
2023/11/25 09:23:17;;;;;;;;;2.75;2.25;;;;;;;;5050629;28;11436;-79
2023/11/25 09:25:47;;;;;;;;;2.00;2.00;;;;;;;;5050565;28;11540;-80
2023/11/25 09:28:15;;;;;;;;;2.00;0.00;;;;;;;;5050098;28;11499;-79
2023/11/25 09:30:42;;;;;;;;;5.00;2.00;;;;;;;;5050050;28;11356;-78
2023/11/25 09:33:11;;;;;;;;;5.75;5.00;;;;;;;;5050113;28;11545;-80
2023/11/25 09:35:38;;;;;;;;;2.50;2.50;;;;;;;;5050332;28;11487;-79
2023/11/25 09:38:06;;;;;;;;;6.50;2.00;;;;;;;;5049667;28;12225;-79
2023/11/25 09:40:33;;;;;;;;;7.75;3.00;;;;;;;;5050151;28;11454;-79
2023/11/25 09:43:01;;;;;;;;;3.75;2.00;;;;;;;;5050009;28;11478;-80
2023/11/25 09:45:32;;;;;;;;;1.75;1.75;;;;;;;;5050292;28;11565;-80
2023/11/25 09:48:03;;;;;;;;;4.25;2.00;;;;;;;;5049840;28;11115;-79
2023/11/25 09:50:34;;;;;;;;;4.50;2.25;;;;;;;;5050000;28;11259;-78
2023/11/25 09:53:09;;;;;;;;;2.75;2.75;;;;;;;;5050121;28;10994;-79
2023/11/25 09:55:38;;;;;;;;;2.00;2.00;;;;;;;;5049617;28;10874;-80
2023/11/25 09:58:09;;;;;;;;;2.25;1.00;;;;;;;;5049804;28;11103;-79
2023/11/25 10:00:37;;;;;;;;;1.75;1.75;;;;;;;;5049576;28;10811;-79
2023/11/25 10:03:08;;;;;;;;;2.00;1.00;;;;;;;;5050217;28;11695;-80
2023/11/25 10:05:36;;;;;;;;;2.00;1.25;;;;;;;;5048502;28;10734;-79
2023/11/25 10:08:04;;;;;;;;;1.25;1.25;;;;;;;;5049377;28;10794;-79
2023/11/25 10:10:32;;;;;;;;;2.50;2.00;;;;;;;;5049111;28;10668;-79
2023/11/25 10:13:00;;;;;;;;;2.75;2.00;;;;;;;;5050319;28;10477;-80
2023/11/25 10:15:28;;;;;;;;;0.50;0.25;;;;;;;;5049471;28;10464;-80
2023/11/25 10:17:55;;;;;;;;;4.00;1.00;;;;;;;;5049794;28;10407;-79
2023/11/25 10:20:23;;;;;;;;;1.25;1.25;;;;;;;;5048173;28;10350;-80
2023/11/25 10:22:58;;;;;;;;;1.00;1.00;;;;;;;;5049397;28;10377;-79
2023/11/25 10:25:30;;;;;;;;;1.00;1.00;;;;;;;;5038286;28;10542;-79
2023/11/25 10:27:58;;;;;;;;;1.75;1.00;;;;;;;;5049258;28;10311;-79
2023/11/25 10:30:28;;;;;;;;;1.75;1.75;;;;;;;;5049850;28;10224;-78
2023/11/25 10:32:58;;;;;;;;;0.00;0.00;;;;;;;;5050988;28;10326;-80
2023/11/25 10:35:25;;;;;;;;;1.00;1.00;;;;;;;;5053155;28;10236;-79
2023/11/25 10:37:54;;;;;;;;;3.00;1.00;;;;;;;;5054316;28;10171;-79
2023/11/25 10:40:27;;;;;;;;;2.00;2.00;;;;;;;;5044983;28;10229;-79
2023/11/25 10:42:55;;;;;;;;;2.00;2.00;;;;;;;;5045459;28;10175;-79
2023/11/25 10:45:27;;;;;;;;;2.00;2.00;;;;;;;;5041574;28;10307;-80
2023/11/25 10:47:55;;;;;;;;;1.00;1.00;;;;;;;;5047456;28;10113;-80
2023/11/25 10:50:25;;;;;;;;;2.50;1.50;;;;;;;;5048761;28;9899;-79
2023/11/25 10:53:00;;;;;;;;;1.00;0.75;;;;;;;;5048200;28;9846;-78
2023/11/25 10:55:32;;;;;;;;;1.50;1.25;;;;;;;;5050841;28;9950;-78
2023/11/25 10:58:00;;;;;;;;;1.00;1.00;;;;;;;;5052421;28;10011;-78
2023/11/25 11:00:32;;;;;;;;;1.00;1.00;;;;;;;;5051228;28;9854;-79
2023/11/25 11:03:04;;;;;;;;;2.00;1.00;;;;;;;;5049583;28;9758;-78
2023/11/25 11:05:39;;;;;;;;;0.00;0.00;;;;;;;;5049001;28;9759;-79
2023/11/25 11:08:18;;;;;;;;;0.00;0.00;;;;;;;;5048676;28;9680;-78
2023/11/25 11:10:53;;;;;;;;;1.00;1.00;;;;;;;;5036900;28;9629;-79
2023/11/25 11:13:26;;;;;;;;;4.75;2.00;;;;;;;;5048855;28;9701;-78
2023/11/25 11:15:56;;;;;;;;;4.00;1.00;;;;;;;;5049735;28;9697;-79
2023/11/25 11:18:27;;;;;;;;;1.00;1.00;;;;;;;;5049540;28;9702;-78
2023/11/25 11:20:56;;;;;;;;;1.00;0.00;;;;;;;;5049018;28;9625;-79
2023/11/25 11:23:27;;;;;;;;;1.50;1.50;;;;;;;;5048494;28;10494;-78
2023/11/25 11:26:02;;;;;;;;;2.75;0.75;;;;;;;;5048233;28;10029;-78
2023/11/25 11:28:38;;;;;;;;;2.00;0.00;;;;;;;;5047683;28;9968;-78
2023/11/25 11:31:47;;;;;;;;;1.00;1.00;;;;;;;;5046555;28;9826;-79
2023/11/25 11:34:15;;;;;;;;;1.00;0.25;;;;;;;;5027651;28;10177;-80
2023/11/25 11:36:45;;;;;;;;;2.00;2.00;;;;;;;;5035922;28;10094;-79
2023/11/25 11:39:33;;;;;;;;;0.75;0.50;;;;;;;;5047895;28;10422;-80
2023/11/25 11:42:25;;;;;;;;;1.50;0.00;;;;;;;;5048192;28;10200;-80
2023/11/25 11:45:11;;;;;;;;;3.00;1.00;;;;;;;;5036113;28;10073;-79
2023/11/25 11:47:39;;;;;;;;;1.00;1.00;;;;;;;;5048333;28;10091;-79
2023/11/25 11:50:09;;;;;;;;;0.00;0.00;;;;;;;;5049912;28;10059;-79
2023/11/25 11:52:46;;;;;;;;;0.25;0.25;;;;;;;;5051388;28;9989;-79
2023/11/25 11:55:39;;;;;;;;;0.00;0.00;;;;;;;;5053368;28;10050;-79
2023/11/25 11:58:09;;;;;;;;;1.00;1.00;;;;;;;;5028663;28;10086;-78
2023/11/25 12:00:46;;;;;;;;;0.50;0.25;;;;;;;;5045037;28;10191;-80
2023/11/25 12:03:13;;;;;;;;;0.00;0.00;;;;;;;;5047883;28;10444;-79
2023/11/25 12:05:41;;;;;;;;;0.00;0.00;;;;;;;;5047659;28;10337;-78
2023/11/25 12:08:11;;;;;;;;;1.00;1.00;;;;;;;;5047847;28;10233;-78
2023/11/25 12:10:40;;;;;;;;;0.00;0.00;;;;;;;;5047772;28;10375;-80
2023/11/25 12:13:08;;;;;;;;;2.00;0.25;;;;;;;;5047113;28;10397;-79
2023/11/25 12:15:36;;;;;;;;;1.00;1.00;;;;;;;;5047648;28;11124;-79
2023/11/25 12:18:05;;;;;;;;;1.00;1.00;;;;;;;;5047684;28;10458;-79
2023/11/25 12:20:33;;;;;;;;;3.50;2.00;;;;;;;;5048704;28;10301;-78
2023/11/25 12:23:08;;;;;;;;;2.00;0.00;;;;;;;;5048453;28;10246;-79
2023/11/25 12:25:36;;;;;;;;;0.00;0.00;;;;;;;;5050306;28;9899;-80
2023/11/25 12:28:08;;;;;;;;;1.25;0.00;;;;;;;;5050748;28;9761;-80
2023/11/25 12:30:37;;;;;;;;;1.00;1.00;;;;;;;;5038175;28;9576;-81
2023/11/25 12:33:05;;;;;;;;;1.50;1.00;;;;;;;;5043855;28;9555;-79
2023/11/25 12:35:35;;;;;;;;;0.00;0.00;;;;;;;;5043748;28;9542;-78
2023/11/25 12:38:06;;;;;;;;;9.00;6.75;;;;;;;;5041690;28;9551;-80
2023/11/25 12:40:36;;;;;;;;;4.50;3.00;;;;;;;;5042033;28;9936;-78
2023/11/25 12:43:10;;;;;;;;;1.00;0.00;;;;;;;;5048532;28;9699;-79
2023/11/25 12:45:40;;;;;;;;;1.00;0.67;;;;;;;;5052946;28;9389;-78
2023/11/25 12:48:09;;;;;;;;;0.00;0.00;;;;;;;;5054499;28;9417;-79
2023/11/25 12:51:00;;;;;;;;;1.00;1.00;;;;;;;;5053004;28;9282;-78
2023/11/25 12:53:28;;;;;;;;;0.00;0.00;;;;;;;;5044072;28;9233;-78
2023/11/25 12:55:57;;;;;;;;;0.00;0.00;;;;;;;;5051222;28;9239;-79
2023/11/25 12:58:26;;;;;;;;;0.00;0.00;;;;;;;;5051415;28;9255;-79
2023/11/25 13:00:55;;;;;;;;;1.00;0.00;;;;;;;;5050089;28;9343;-79
2023/11/25 13:03:23;;;;;;;;;1.00;1.00;;;;;;;;5051259;28;9501;-80
2023/11/25 13:05:59;;;;;;;;;0.00;0.00;;;;;;;;5050115;28;9334;-79
2023/11/25 13:08:31;;;;;;;;;0.00;0.00;;;;;;;;5050361;28;9349;-79
2023/11/25 13:10:59;;;;;;;;;0.00;0.00;;;;;;;;5051372;28;9414;-80
2023/11/25 13:13:29;;;;;;;;;2.00;0.00;;;;;;;;5050577;28;9170;-80
2023/11/25 13:15:56;;;;;;;;;0.33;0.33;;;;;;;;5051249;28;9166;-79
2023/11/25 13:18:24;;;;;;;;;2.00;0.00;;;;;;;;5052651;28;9039;-79
2023/11/25 13:20:51;;;;;;;;;1.00;0.00;;;;;;;;5054229;28;9467;-79
2023/11/25 13:23:19;;;;;;;;;0.00;0.00;;;;;;;;5052428;28;9369;-78
2023/11/25 13:25:47;;;;;;;;;0.00;0.00;;;;;;;;5049991;28;9618;-80
2023/11/25 13:28:14;;;;;;;;;1.25;0.00;;;;;;;;5050416;28;9558;-79
2023/11/25 13:30:44;;;;;;;;;0.50;0.50;;;;;;;;5049673;28;9623;-79
2023/11/25 13:33:12;;;;;;;;;0.00;0.00;;;;;;;;5050622;28;9629;-79
2023/11/25 13:35:39;;;;;;;;;0.00;0.00;;;;;;;;5050334;28;10550;-79
2023/11/25 13:38:08;;;;;;;;;2.00;0.00;;;;;;;;5049968;28;9774;-78
2023/11/25 13:40:37;;;;;;;;;0.00;0.00;;;;;;;;5050219;28;9765;-78
2023/11/25 13:43:06;;;;;;;;;0.50;0.50;;;;;;;;5049291;28;9761;-79
2023/11/25 13:45:33;;;;;;;;;1.00;1.00;;;;;;;;5050343;28;9775;-78
2023/11/25 13:48:04;;;;;;;;;0.00;0.00;;;;;;;;5049744;28;9806;-78
2023/11/25 13:50:32;;;;;;;;;0.00;0.00;;;;;;;;5049899;28;9915;-79
2023/11/25 13:53:00;;;;;;;;;0.00;0.00;;;;;;;;5051033;28;9635;-79
2023/11/25 13:55:32;;;;;;;;;2.25;2.25;;;;;;;;5050151;28;9689;-79
2023/11/25 13:57:59;;;;;;;;;3.50;1.75;;;;;;;;5050014;28;9910;-79
2023/11/25 14:00:26;;;;;;;;;2.00;0.00;;;;;;;;5049797;28;9850;-79
2023/11/25 14:02:54;;;;;;;;;4.50;3.75;;;;;;;;5049811;28;9627;-77
2023/11/25 14:05:25;;;;;;;;;5.00;3.50;;;;;;;;5049571;28;10146;-80
2023/11/25 14:07:54;;;;;;;;;0.00;0.00;;;;;;;;5050628;28;9773;-79
2023/11/25 14:10:21;;;;;;;;;1.00;1.00;;;;;;;;5050928;28;9553;-77
2023/11/25 14:12:48;;;;;;;;;0.50;0.00;;;;;;;;5053376;28;9715;-78
2023/11/25 14:15:18;;;;;;;;;2.75;2.75;;;;;;;;5051438;28;9766;-79
2023/11/25 14:17:45;;;;;;;;;0.00;0.00;;;;;;;;5042302;28;9949;-77
2023/11/25 14:20:16;;;;;;;;;6.00;6.00;;;;;;;;5046114;28;9886;-79
2023/11/25 14:22:46;;;;;;;;;4.75;2.00;;;;;;;;5042403;28;9937;-79
2023/11/25 14:25:14;;;;;;;;;0.00;0.00;;;;;;;;5048260;28;9861;-80
2023/11/25 14:27:42;;;;;;;;;0.00;0.00;;;;;;;;5053985;28;9706;-79
2023/11/25 14:30:12;;;;;;;;;1.00;1.00;;;;;;;;5039448;28;9908;-80
2023/11/25 14:32:40;;;;;;;;;2.25;0.00;;;;;;;;5049606;28;10182;-79
2023/11/25 14:35:08;;;;;;;;;1.00;1.00;;;;;;;;5051710;28;10065;-78
2023/11/25 14:37:36;;;;;;;;;0.00;0.00;;;;;;;;5051834;28;10985;-77
2023/11/25 14:40:07;;;;;;;;;0.00;0.00;;;;;;;;5050045;28;10168;-78
2023/11/25 14:42:34;;;;;;;;;0.00;0.00;;;;;;;;5048999;28;10513;-78
2023/11/25 14:45:02;;;;;;;;;0.75;0.00;;;;;;;;5049210;28;10228;-80
2023/11/25 14:47:29;;;;;;;;;1.00;1.00;;;;;;;;5049286;28;10488;-78
2023/11/25 14:49:56;;;;;;;;;2.00;0.00;;;;;;;;5049325;28;10308;-79
2023/11/25 14:52:24;;;;;;;;;0.00;0.00;;;;;;;;5048272;28;10318;-78
2023/11/25 14:54:51;;;;;;;;;0.25;0.25;;;;;;;;5048978;28;10225;-78
2023/11/25 14:57:20;;;;;;;;;2.00;0.25;;;;;;;;5048703;28;11176;-78